MVC0100 SPZO-SKRG
Flight info
| Callsign | MVC0100 |
|---|---|
| Flight time | N/A |
| Altitude | 36000 |
| Route | GAXUN DCT ILNAM UL300 BOG DCT MQU B689 RENOS RENOS3B |
| Aircraft | A320/M-SDE3FGHIRWY/LB1 |
Departure
| Time | 2026-04-22 23:08 |
|---|---|
| Airport | Alejandro Velasco Astete International Airport (SPZO) |
Arrival
| Time | N/A |
|---|---|
| Airport | Jose Maria Córdova International Airport (SKRG) |
| Time | Latitude | Longitude | Altitude | Speed | Heading |
|---|---|---|---|---|---|
| 2026-04-22 23:01 | -13.53737 | -71.94268 | 10814 ft | 0 kts | 1° |
| 2026-04-22 23:03 | -13.53719 | -71.94268 | 10816 ft | 7 kts | 1° |
| 2026-04-22 23:03 | -13.53675 | -71.94293 | 10816 ft | 10 kts | 294° |
| 2026-04-22 23:04 | -13.53658 | -71.94394 | 10816 ft | 17 kts | 276° |
| 2026-04-22 23:04 | -13.53641 | -71.94537 | 10816 ft | 23 kts | 277° |
| 2026-04-22 23:04 | -13.53624 | -71.94698 | 10827 ft | 22 kts | 276° |
| 2026-04-22 23:04 | -13.53608 | -71.94850 | 10836 ft | 21 kts | 275° |
| 2026-04-22 23:05 | -13.53598 | -71.94988 | 10851 ft | 18 kts | 273° |
| 2026-04-22 23:05 | -13.53585 | -71.95103 | 10861 ft | 15 kts | 277° |
| 2026-04-22 23:05 | -13.53575 | -71.95203 | 10863 ft | 14 kts | 279° |
| 2026-04-22 23:05 | -13.53561 | -71.95309 | 10864 ft | 17 kts | 276° |
| 2026-04-22 23:06 | -13.53529 | -71.95428 | 10864 ft | 18 kts | 328° |
| 2026-04-22 23:06 | -13.53426 | -71.95405 | 10871 ft | 14 kts | 57° |
| 2026-04-22 23:06 | -13.53423 | -71.95368 | 10865 ft | 0 kts | 95° |
| 2026-04-22 23:06 | -13.53427 | -71.95323 | 10864 ft | 21 kts | 95° |
| 2026-04-22 23:07 | -13.53466 | -71.94953 | 10845 ft | 85 kts | 95° |
| 2026-04-22 23:07 | -13.53539 | -71.94159 | 10814 ft | 138 kts | 97° |
| 2026-04-22 23:07 | -13.53660 | -71.93005 | 10753 ft | 182 kts | 96° |
| 2026-04-22 23:07 | -13.53783 | -71.91690 | 11322 ft | 183 kts | 95° |
| 2026-04-22 23:08 | -13.53912 | -71.90381 | 12154 ft | 186 kts | 95° |
| 2026-04-22 23:08 | -13.54134 | -71.89042 | 12422 ft | 195 kts | 106° |
| 2026-04-22 23:08 | -13.54637 | -71.87731 | 12556 ft | 204 kts | 116° |
| 2026-04-22 23:08 | -13.55276 | -71.86392 | 12661 ft | 213 kts | 112° |
| 2026-04-22 23:09 | -13.55801 | -71.84929 | 12753 ft | 223 kts | 108° |
| 2026-04-22 23:09 | -13.56323 | -71.83395 | 12824 ft | 232 kts | 108° |
| 2026-04-22 23:09 | -13.56898 | -71.81796 | 12881 ft | 245 kts | 111° |
| 2026-04-22 23:09 | -13.57563 | -71.80134 | 12952 ft | 258 kts | 111° |
| 2026-04-22 23:10 | -13.58224 | -71.78374 | 13017 ft | 271 kts | 104° |
| 2026-04-22 23:10 | -13.58536 | -71.76412 | 13090 ft | 286 kts | 91° |
| 2026-04-22 23:10 | -13.58373 | -71.74321 | 13167 ft | 302 kts | 77° |
| 2026-04-22 23:10 | -13.57682 | -71.72231 | 13269 ft | 318 kts | 63° |
| 2026-04-22 23:11 | -13.56427 | -71.70297 | 13385 ft | 334 kts | 47° |
| 2026-04-22 23:11 | -13.55153 | -71.69090 | 13465 ft | 0 kts | 35° |